Aviation Digital Data Service (ADDS)

Output produced by TAFs form (1834 UTC 27 April 2015)
found at http://aviationweather.gov/adds/tafs/
 
KMTJ 271740Z 2718/2818 34006KT P6SM SCT030 SCT050 
     FM272000 33010KT P6SM VCSH SCT045 BKN070 
     FM280200 14006KT P6SM SCT060 BKN100 
     FM280900 15005KT P6SM SCT080 SCT100